createdAt,value
2023-01-12T00:01:28.483Z,3.00
2023-01-12T00:03:56.197Z,2.87
2023-01-12T00:06:24.135Z,2.60
2023-01-12T00:08:52.152Z,3.22
2023-01-12T00:11:20.975Z,3.10
2023-01-12T00:13:48.464Z,2.72
2023-01-12T00:16:37.962Z,3.12
2023-01-12T00:19:11.337Z,2.70
2023-01-12T00:22:00.354Z,2.60
2023-01-12T00:24:34.498Z,3.33
2023-01-12T00:27:04.173Z,3.33
2023-01-12T00:29:31.640Z,3.45
2023-01-12T00:32:00.737Z,3.05
2023-01-12T00:34:29.661Z,3.33
2023-01-12T00:36:58.234Z,3.20
2023-01-12T00:39:25.282Z,3.10
2023-01-12T00:42:11.110Z,3.37
2023-01-12T00:44:56.957Z,3.12
2023-01-12T00:47:24.194Z,3.12
2023-01-12T00:49:51.745Z,3.65
2023-01-12T00:52:35.502Z,4.20
2023-01-12T00:55:02.883Z,4.07
2023-01-12T00:57:29.911Z,3.90
2023-01-12T00:59:59.253Z,4.00
2023-01-12T01:02:28.411Z,3.58
2023-01-12T01:04:55.739Z,3.62
2023-01-12T01:07:22.762Z,3.60
2023-01-12T01:09:50.691Z,3.70
2023-01-12T01:12:19.157Z,3.78
2023-01-12T01:14:48.070Z,4.15
2023-01-12T01:17:15.633Z,3.67
2023-01-12T01:19:43.671Z,4.03
2023-01-12T01:22:12.482Z,3.87
2023-01-12T01:24:40.704Z,3.60
2023-01-12T01:27:07.747Z,4.20
2023-01-12T01:29:34.743Z,4.07
2023-01-12T01:32:02.095Z,4.57
2023-01-12T01:34:29.088Z,5.18
2023-01-12T01:36:56.102Z,5.45
2023-01-12T01:39:23.435Z,4.20
2023-01-12T01:41:50.453Z,4.87
2023-01-12T01:44:29.345Z,4.57
2023-01-12T01:47:06.912Z,5.62
2023-01-12T01:49:44.018Z,6.28
2023-01-12T01:52:21.635Z,6.93
2023-01-12T01:54:55.229Z,7.93
2023-01-12T01:57:26.203Z,8.65
2023-01-12T01:59:55.118Z,8.85
2023-01-12T02:02:23.545Z,8.88
2023-01-12T02:04:50.935Z,11.27
2023-01-12T02:07:18.316Z,9.45
2023-01-12T02:09:45.312Z,10.30
2023-01-12T02:12:31.470Z,9.43
2023-01-12T02:15:17.414Z,9.82
2023-01-12T02:17:58.883Z,10.88
2023-01-12T02:20:35.173Z,10.77
2023-01-12T02:23:21.018Z,10.80
2023-01-12T02:26:25.198Z,11.10
2023-01-12T02:28:52.767Z,10.63
2023-01-12T02:31:41.194Z,10.02
2023-01-12T02:34:47.282Z,9.85
2023-01-12T02:37:39.379Z,9.82
2023-01-12T02:40:11.137Z,9.77
2023-01-12T02:42:47.503Z,10.60
2023-01-12T02:45:34.630Z,10.68
2023-01-12T02:48:08.083Z,11.10
2023-01-12T02:51:12.877Z,12.07
2023-01-12T02:56:12.713Z,10.65
2023-01-12T02:58:46.827Z,11.40
2023-01-12T03:01:14.998Z,10.38
2023-01-12T03:03:42.746Z,11.10
2023-01-12T03:06:19.050Z,10.73
2023-01-12T03:08:48.075Z,11.02
2023-01-12T03:11:20.800Z,10.13
2023-01-12T03:13:56.271Z,10.77
2023-01-12T03:16:27.228Z,10.00
2023-01-12T03:18:59.057Z,9.63
2023-01-12T03:21:29.760Z,9.00
2023-01-12T03:24:02.114Z,9.05
2023-01-12T03:26:30.834Z,9.25
2023-01-12T03:29:15.447Z,8.55
2023-01-12T03:31:42.749Z,8.93
2023-01-12T03:34:10.288Z,9.55
2023-01-12T03:37:04.917Z,9.15
2023-01-12T03:40:00.478Z,8.82
2023-01-12T03:42:36.756Z,8.63
2023-01-12T03:45:25.355Z,8.93
2023-01-12T03:48:00.368Z,9.32
2023-01-12T03:50:34.349Z,8.63
2023-01-12T03:53:02.439Z,9.02
2023-01-12T03:55:31.102Z,8.55
2023-01-12T03:57:58.674Z,10.00
2023-01-12T04:00:27.290Z,7.70
2023-01-12T04:03:24.637Z,8.43
2023-01-12T04:05:51.808Z,8.98
2023-01-12T04:08:19.148Z,8.63
2023-01-12T04:10:46.150Z,9.35
2023-01-12T04:13:13.361Z,9.25
2023-01-12T04:15:42.635Z,9.32
2023-01-12T04:18:10.741Z,8.77
2023-01-12T04:20:38.578Z,8.75
2023-01-12T04:23:09.532Z,9.02
2023-01-12T04:25:36.687Z,9.63
2023-01-12T04:28:07.154Z,9.13
2023-01-12T04:30:34.683Z,10.65
2023-01-12T04:33:08.028Z,10.32
2023-01-12T04:35:36.275Z,9.25
2023-01-12T04:38:07.381Z,10.63
2023-01-12T04:40:34.459Z,10.20
2023-01-12T04:43:01.792Z,11.32
2023-01-12T04:45:31.237Z,10.63
2023-01-12T04:48:09.518Z,11.38
2023-01-12T04:50:38.165Z,10.70
2023-01-12T04:53:07.215Z,10.95
2023-01-12T04:55:36.806Z,10.20
2023-01-12T04:58:04.482Z,11.85
2023-01-12T05:00:31.705Z,11.35
2023-01-12T05:03:02.154Z,11.55
2023-01-12T05:05:31.072Z,11.55
2023-01-12T05:08:21.196Z,10.95
2023-01-12T05:10:52.860Z,11.02
2023-01-12T05:13:20.354Z,11.05
2023-01-12T05:15:47.463Z,11.05
2023-01-12T05:18:15.560Z,10.43
2023-01-12T05:20:42.723Z,11.63
2023-01-12T05:23:09.808Z,11.85
2023-01-12T05:25:37.193Z,11.02
2023-01-12T05:28:04.506Z,11.82
2023-01-12T05:30:32.198Z,11.38
2023-01-12T05:32:59.653Z,11.10
2023-01-12T05:35:26.751Z,9.77
2023-01-12T05:37:56.712Z,10.27
2023-01-12T05:40:24.622Z,11.77
2023-01-12T05:43:10.459Z,10.25
2023-01-12T05:45:38.033Z,10.45
2023-01-12T05:48:05.326Z,11.55
2023-01-12T05:50:32.572Z,11.02
2023-01-12T05:53:08.815Z,10.57
2023-01-12T05:55:37.459Z,10.65
2023-01-12T05:58:04.754Z,10.20
2023-01-12T06:00:32.135Z,11.10
2023-01-12T06:02:59.476Z,11.02
2023-01-12T06:05:26.660Z,10.23
2023-01-12T06:07:53.770Z,11.30
2023-01-12T06:10:21.162Z,11.35
2023-01-12T06:13:08.908Z,10.68
2023-01-12T06:15:36.338Z,11.05
2023-01-12T06:18:03.592Z,10.57
2023-01-12T06:20:30.718Z,11.93
2023-01-12T06:23:02.339Z,10.43
2023-01-12T06:25:30.131Z,10.02
2023-01-12T06:27:57.750Z,9.77
2023-01-12T06:30:25.095Z,10.25
2023-01-12T06:32:52.218Z,9.07
2023-01-12T06:35:20.034Z,9.48
2023-01-12T06:37:47.363Z,10.32
2023-01-12T06:40:15.566Z,9.95
2023-01-12T06:42:42.982Z,10.68
2023-01-12T06:45:10.674Z,11.35
2023-01-12T06:47:49.315Z,10.07
2023-01-12T06:50:16.982Z,10.68
2023-01-12T06:52:44.103Z,10.48
2023-01-12T06:55:11.386Z,10.35
2023-01-12T06:57:38.905Z,11.45
2023-01-12T07:00:06.852Z,11.60
2023-01-12T07:02:34.474Z,10.88
2023-01-12T07:05:01.832Z,9.07
2023-01-12T07:07:28.913Z,9.90
2023-01-12T07:09:57.009Z,11.27
2023-01-12T07:12:24.912Z,12.07
2023-01-12T07:14:53.086Z,11.10
2023-01-12T07:17:20.151Z,10.52
2023-01-12T07:19:47.699Z,9.90
2023-01-12T07:22:14.814Z,9.52
2023-01-12T07:24:41.945Z,10.77
2023-01-12T07:27:09.315Z,10.73
2023-01-12T07:29:36.382Z,10.00
2023-01-12T07:32:03.869Z,9.95
2023-01-12T07:34:31.345Z,10.30
2023-01-12T07:36:58.392Z,11.30
2023-01-12T07:39:25.867Z,11.63
2023-01-12T07:42:12.543Z,11.63
2023-01-12T07:44:40.418Z,10.88
2023-01-12T07:47:07.849Z,11.80
2023-01-12T07:49:34.971Z,12.43
2023-01-12T07:52:02.049Z,12.10
2023-01-12T07:54:29.505Z,11.30
2023-01-12T07:56:57.952Z,11.95
2023-01-12T07:59:25.853Z,11.90
2023-01-12T08:01:54.576Z,11.88
2023-01-12T08:04:22.640Z,12.60
2023-01-12T08:06:49.765Z,11.35
2023-01-12T08:09:16.921Z,11.77
2023-01-12T08:11:44.358Z,10.60
2023-01-12T08:14:16.975Z,12.82
2023-01-12T08:16:46.549Z,12.27
2023-01-12T08:19:19.282Z,12.23
2023-01-12T08:21:52.685Z,12.05
2023-01-12T08:24:22.123Z,13.25
2023-01-12T08:26:51.490Z,13.65
2023-01-12T08:29:30.037Z,14.38
2023-01-12T08:32:04.850Z,13.38
2023-01-12T08:34:33.672Z,13.45
2023-01-12T08:37:05.086Z,13.73
2023-01-12T08:39:35.197Z,14.90
2023-01-12T08:42:03.671Z,15.90
2023-01-12T08:44:35.428Z,13.93
2023-01-12T08:47:04.526Z,13.50
2023-01-12T08:49:32.949Z,13.82
2023-01-12T08:51:59.986Z,13.13
2023-01-12T08:54:27.458Z,13.23
2023-01-12T08:56:54.888Z,14.32
2023-01-12T08:59:23.018Z,14.23
2023-01-12T09:01:50.417Z,13.45
2023-01-12T09:04:17.547Z,13.30
2023-01-12T09:06:45.383Z,13.27
2023-01-12T09:09:16.841Z,13.52
2023-01-12T09:11:44.525Z,13.25
2023-01-12T09:14:12.721Z,12.35
2023-01-12T09:16:40.535Z,11.00
2023-01-12T09:19:09.568Z,11.38
2023-01-12T09:21:38.580Z,11.75
2023-01-12T09:24:06.462Z,10.90
2023-01-12T09:26:38.914Z,10.15
2023-01-12T09:29:07.814Z,9.17
2023-01-12T09:31:36.147Z,12.05
2023-01-12T09:34:05.107Z,10.45
2023-01-12T09:36:34.755Z,10.32
2023-01-12T09:39:02.117Z,8.77
2023-01-12T09:41:50.082Z,9.68
2023-01-12T09:44:56.027Z,10.07
2023-01-12T09:47:40.675Z,11.12
2023-01-12T09:50:16.440Z,10.52
2023-01-12T09:52:57.335Z,9.63
2023-01-12T09:55:26.485Z,9.88
2023-01-12T09:58:16.798Z,8.73
2023-01-12T10:00:44.075Z,8.30
2023-01-12T10:03:11.365Z,10.18
2023-01-12T10:05:49.785Z,9.98
2023-01-12T10:08:43.100Z,10.68
2023-01-12T10:11:17.656Z,11.73
2023-01-12T10:14:05.198Z,11.12
2023-01-12T10:17:13.989Z,11.05
2023-01-12T10:20:00.024Z,11.85
2023-01-12T10:22:40.043Z,11.82
2023-01-12T10:25:15.126Z,11.65
2023-01-12T10:27:44.467Z,11.30
2023-01-12T10:30:13.803Z,11.43
2023-01-12T10:32:42.319Z,11.35
2023-01-12T10:35:18.097Z,11.38
2023-01-12T10:37:51.642Z,10.82
2023-01-12T10:40:26.782Z,12.85
2023-01-12T10:43:20.009Z,11.40
2023-01-12T10:46:08.569Z,10.95
2023-01-12T10:48:36.803Z,11.05
2023-01-12T10:51:06.275Z,11.73
2023-01-12T10:53:38.805Z,11.73
2023-01-12T10:56:36.601Z,12.10
2023-01-12T10:59:12.814Z,11.65
2023-01-12T11:02:00.164Z,12.00
2023-01-12T11:04:29.415Z,12.37
2023-01-12T11:07:04.957Z,12.93
2023-01-12T11:09:32.417Z,11.93
2023-01-12T11:12:01.937Z,11.60
2023-01-12T11:14:32.189Z,12.75
2023-01-12T11:17:28.799Z,12.52
2023-01-12T11:19:57.653Z,11.55
2023-01-12T11:22:27.891Z,12.77
2023-01-12T11:25:07.437Z,11.88
2023-01-12T11:27:49.317Z,13.18
2023-01-12T11:30:28.238Z,12.48
2023-01-12T11:33:18.742Z,13.13
2023-01-12T11:35:53.121Z,12.10
2023-01-12T11:38:33.682Z,11.88
2023-01-12T11:41:01.738Z,12.57
2023-01-12T11:43:55.859Z,12.23
2023-01-12T11:46:35.947Z,13.75
2023-01-12T11:49:24.361Z,12.93
2023-01-12T11:51:56.444Z,12.35
2023-01-12T11:54:25.382Z,13.82
2023-01-12T11:56:55.331Z,12.07
2023-01-12T12:00:01.585Z,12.80
2023-01-12T12:05:23.290Z,12.50
2023-01-12T12:07:53.023Z,11.95
2023-01-12T12:10:25.461Z,13.20
2023-01-12T12:13:13.593Z,13.07
2023-01-12T12:16:15.944Z,13.48
2023-01-12T12:18:51.209Z,12.85
2023-01-12T12:21:30.406Z,12.80
2023-01-12T12:24:09.224Z,12.65
2023-01-12T12:26:43.447Z,12.70
2023-01-12T12:29:30.823Z,13.05
2023-01-12T12:32:11.498Z,13.62
2023-01-12T12:34:54.962Z,12.60
2023-01-12T12:37:31.206Z,12.95
2023-01-12T12:40:04.067Z,12.55
2023-01-12T12:43:03.626Z,12.73
2023-01-12T12:45:50.741Z,14.95
2023-01-12T12:48:50.359Z,12.48
2023-01-12T12:51:20.344Z,15.82
2023-01-12T12:53:50.373Z,12.60
2023-01-12T12:56:20.942Z,10.95
2023-01-12T12:58:53.748Z,11.55
2023-01-12T13:01:20.984Z,11.25
2023-01-12T13:03:52.401Z,10.38
2023-01-12T13:06:26.483Z,11.05
2023-01-12T13:09:15.464Z,11.20
2023-01-12T13:11:53.818Z,9.70
2023-01-12T13:14:25.247Z,9.57
2023-01-12T13:16:54.986Z,11.05
2023-01-12T13:19:41.235Z,10.05
2023-01-12T13:22:40.700Z,9.10
2023-01-12T13:25:20.462Z,9.60
2023-01-12T13:27:59.892Z,9.27
2023-01-12T13:30:30.168Z,9.90
2023-01-12T13:33:15.534Z,10.73
2023-01-12T13:35:46.423Z,10.00
2023-01-12T13:38:44.547Z,11.65
2023-01-12T13:41:15.180Z,9.95
2023-01-12T13:43:48.216Z,10.20
2023-01-12T13:46:18.060Z,10.80
2023-01-12T13:48:50.419Z,10.65
2023-01-12T13:51:20.731Z,11.05
2023-01-12T13:53:59.341Z,10.63
2023-01-12T13:56:26.991Z,9.63
2023-01-12T13:59:02.297Z,9.55
2023-01-12T14:01:40.409Z,9.38
2023-01-12T14:04:13.848Z,9.85
2023-01-12T14:06:56.096Z,9.57
2023-01-12T14:10:05.413Z,9.15
2023-01-12T14:12:58.525Z,9.73
2023-01-12T14:15:52.389Z,8.85
2023-01-12T14:18:21.169Z,8.88
2023-01-12T14:20:56.776Z,9.40
2023-01-12T14:23:25.162Z,9.48
2023-01-12T14:26:10.569Z,8.27
2023-01-12T14:28:39.299Z,8.65
2023-01-12T14:31:08.605Z,8.15
2023-01-12T14:33:37.771Z,8.52
2023-01-12T14:36:07.221Z,7.97
2023-01-12T14:38:35.159Z,8.35
2023-01-12T14:41:05.731Z,7.97
2023-01-12T14:43:52.520Z,9.15
2023-01-12T14:46:31.403Z,9.70
2023-01-12T14:48:58.371Z,10.73
2023-01-12T14:51:36.414Z,10.35
2023-01-12T14:54:03.526Z,10.65
2023-01-12T14:56:50.217Z,10.70
2023-01-12T14:59:22.752Z,10.38
2023-01-12T15:01:52.889Z,11.18
2023-01-12T15:04:22.865Z,10.80
2023-01-12T15:07:20.414Z,10.73
2023-01-12T15:10:09.522Z,11.12
2023-01-12T15:12:53.831Z,11.93
2023-01-12T15:15:49.420Z,11.20
2023-01-12T15:18:35.539Z,11.70
2023-01-12T15:21:22.619Z,11.00
2023-01-12T15:24:08.742Z,11.48
2023-01-12T15:26:35.960Z,10.95
2023-01-12T15:29:03.390Z,10.77
2023-01-12T15:31:35.053Z,11.10
2023-01-12T15:34:02.600Z,10.10
2023-01-12T15:36:30.141Z,10.18
2023-01-12T15:38:57.423Z,10.73
2023-01-12T15:41:47.967Z,10.95
2023-01-12T15:44:17.539Z,11.15
2023-01-12T15:46:44.912Z,11.10
2023-01-12T15:49:14.054Z,12.20
2023-01-12T15:51:46.716Z,11.75
2023-01-12T15:54:14.102Z,10.75
2023-01-12T15:56:41.757Z,10.57
2023-01-12T15:59:09.231Z,10.60
2023-01-12T16:01:45.808Z,10.20
2023-01-12T16:04:42.243Z,10.27
2023-01-12T16:07:05.673Z,9.90
2023-01-12T16:09:33.019Z,10.52
2023-01-12T16:12:00.121Z,9.38
2023-01-12T16:14:27.725Z,11.00
2023-01-12T16:16:55.784Z,10.68
2023-01-12T16:19:23.666Z,11.45
2023-01-12T16:21:51.071Z,11.02
2023-01-12T16:24:18.503Z,11.73
2023-01-12T16:26:46.441Z,11.70
2023-01-12T16:29:13.546Z,11.30
2023-01-12T16:31:40.991Z,11.12
2023-01-12T16:34:08.119Z,10.80
2023-01-12T16:36:35.411Z,10.23
2023-01-12T16:39:02.809Z,10.18
2023-01-12T16:41:30.198Z,10.00
2023-01-12T16:43:58.452Z,9.43
2023-01-12T16:46:25.873Z,9.77
2023-01-12T16:48:55.466Z,8.65
2023-01-12T16:51:23.048Z,8.05
2023-01-12T16:53:51.541Z,9.13
2023-01-12T16:56:18.704Z,8.60
2023-01-12T16:58:48.540Z,7.68
2023-01-12T17:01:18.970Z,7.72
2023-01-12T17:03:46.198Z,7.95
2023-01-12T17:06:17.072Z,8.20
2023-01-12T17:08:44.520Z,7.82
2023-01-12T17:11:13.349Z,8.35
2023-01-12T17:13:40.592Z,8.27
2023-01-12T17:16:10.047Z,8.05
2023-01-12T17:18:38.284Z,7.22
2023-01-12T17:21:09.071Z,6.72
2023-01-12T17:23:39.372Z,7.55
2023-01-12T17:26:08.241Z,7.30
2023-01-12T17:28:35.436Z,8.32
2023-01-12T17:31:10.386Z,7.95
2023-01-12T17:33:38.716Z,9.02
2023-01-12T17:36:07.478Z,10.93
2023-01-12T17:38:35.616Z,9.75
2023-01-12T17:41:34.398Z,10.52
2023-01-12T17:44:05.344Z,10.00
2023-01-12T17:46:33.054Z,11.35
2023-01-12T17:49:02.168Z,10.15
2023-01-12T17:51:29.603Z,10.75
2023-01-12T17:54:01.584Z,10.57
2023-01-12T17:56:31.419Z,11.23
2023-01-12T17:58:59.625Z,10.88
2023-01-12T18:01:29.303Z,10.80
2023-01-12T18:03:58.345Z,10.90
2023-01-12T18:06:27.136Z,10.35
2023-01-12T18:09:01.808Z,9.98
2023-01-12T18:11:31.274Z,9.05
2023-01-12T18:13:59.469Z,8.25
2023-01-12T18:16:26.742Z,8.10
2023-01-12T18:18:54.377Z,8.68
2023-01-12T18:21:24.027Z,7.97
2023-01-12T18:23:51.763Z,9.43
2023-01-12T18:26:26.253Z,8.35
2023-01-12T18:28:54.609Z,8.38
2023-01-12T18:31:25.709Z,8.82
2023-01-12T18:33:59.299Z,8.00
2023-01-12T18:36:26.658Z,8.13
2023-01-12T18:38:55.247Z,8.98
2023-01-12T18:41:42.487Z,9.05
2023-01-12T18:44:10.521Z,8.43
2023-01-12T18:47:01.268Z,8.70
2023-01-12T18:49:31.099Z,8.38
2023-01-12T18:52:17.477Z,8.23
2023-01-12T18:54:47.380Z,7.25
2023-01-12T18:57:19.104Z,7.40
2023-01-12T18:59:47.553Z,8.15
2023-01-12T19:02:15.972Z,7.50
2023-01-12T19:04:43.356Z,7.22
2023-01-12T19:07:12.959Z,7.43
2023-01-12T19:09:40.074Z,6.53
2023-01-12T19:12:07.177Z,7.37
2023-01-12T19:14:54.379Z,7.18
2023-01-12T19:17:27.076Z,6.47
2023-01-12T19:19:55.606Z,6.30
2023-01-12T19:22:41.424Z,7.00
2023-01-12T19:25:30.926Z,6.82
2023-01-12T19:28:17.382Z,6.70
2023-01-12T19:30:46.629Z,6.53
2023-01-12T19:33:17.314Z,6.80
2023-01-12T19:35:45.939Z,6.62
2023-01-12T19:38:14.466Z,6.40
2023-01-12T19:40:53.614Z,6.85
2023-01-12T19:43:26.144Z,6.12
2023-01-12T19:45:58.205Z,6.57
2023-01-12T19:48:26.770Z,6.20
2023-01-12T19:50:54.334Z,6.07
2023-01-12T19:53:25.871Z,5.62
2023-01-12T19:55:53.901Z,5.90
2023-01-12T19:58:25.025Z,5.50
2023-01-12T20:00:54.716Z,5.37
2023-01-12T20:03:23.853Z,6.00
2023-01-12T20:05:51.930Z,6.25
2023-01-12T20:08:20.733Z,5.78
2023-01-12T20:10:59.434Z,7.03
2023-01-12T20:13:27.333Z,7.20
2023-01-12T20:15:56.812Z,6.57
2023-01-12T20:18:24.395Z,6.97
2023-01-12T20:20:54.162Z,7.00
2023-01-12T20:23:21.563Z,8.00
2023-01-12T20:25:48.643Z,8.02
2023-01-12T20:28:15.740Z,8.02
2023-01-12T20:30:43.519Z,7.30
2023-01-12T20:33:11.171Z,8.52
2023-01-12T20:35:42.203Z,7.82
2023-01-12T20:38:15.499Z,7.97
2023-01-12T20:40:44.461Z,7.30
2023-01-12T20:43:11.882Z,7.70
2023-01-12T20:45:40.528Z,8.05
2023-01-12T20:48:07.671Z,9.02
2023-01-12T20:50:35.074Z,9.00
2023-01-12T20:53:02.085Z,8.10
2023-01-12T20:55:29.394Z,8.75
2023-01-12T20:57:56.857Z,8.75
2023-01-12T21:00:24.295Z,9.13
2023-01-12T21:02:51.308Z,9.10
2023-01-12T21:05:18.625Z,9.80
2023-01-12T21:07:47.489Z,8.88
2023-01-12T21:10:15.935Z,10.63
2023-01-12T21:12:43.542Z,9.70
2023-01-12T21:15:13.464Z,9.63
2023-01-12T21:17:41.133Z,9.75
2023-01-12T21:20:09.527Z,9.55
2023-01-12T21:22:36.836Z,8.98
2023-01-12T21:25:05.088Z,8.82
2023-01-12T21:27:33.467Z,8.43
2023-01-12T21:30:00.508Z,8.90
2023-01-12T21:32:28.852Z,8.40
2023-01-12T21:34:57.006Z,8.93
2023-01-12T21:37:24.140Z,8.50
2023-01-12T21:39:53.326Z,9.60
2023-01-12T21:42:39.624Z,9.73
2023-01-12T21:45:07.068Z,9.55
2023-01-12T21:47:34.342Z,9.35
2023-01-12T21:50:01.461Z,9.98
2023-01-12T21:52:32.933Z,9.20
2023-01-12T21:55:00.387Z,9.90
2023-01-12T21:57:27.434Z,10.00
2023-01-12T21:59:54.538Z,9.88
2023-01-12T22:02:22.036Z,10.63
2023-01-12T22:04:49.393Z,12.30
2023-01-12T22:07:16.522Z,14.77
2023-01-12T22:09:43.583Z,14.40
2023-01-12T22:12:10.951Z,15.30
2023-01-12T22:14:38.052Z,16.52
2023-01-12T22:17:05.330Z,16.23
2023-01-12T22:19:32.813Z,16.08
2023-01-12T22:22:00.136Z,16.23
2023-01-12T22:24:27.358Z,17.12
2023-01-12T22:26:54.907Z,15.38
2023-01-12T22:29:22.063Z,16.40
2023-01-12T22:31:49.168Z,19.17
2023-01-12T22:34:17.008Z,18.02
2023-01-12T22:36:44.010Z,17.48
2023-01-12T22:39:11.752Z,16.95
2023-01-12T22:41:41.910Z,14.75
2023-01-12T22:44:09.019Z,16.42
2023-01-12T22:46:36.948Z,16.90
2023-01-12T22:49:04.386Z,15.27
2023-01-12T22:51:31.709Z,15.43
2023-01-12T22:53:58.850Z,14.32
2023-01-12T22:56:26.362Z,13.98
2023-01-12T22:58:55.080Z,14.00
2023-01-12T23:01:23.418Z,12.68
2023-01-12T23:03:55.911Z,13.45
2023-01-12T23:06:25.094Z,12.70
2023-01-12T23:08:52.652Z,12.43
2023-01-12T23:11:25.283Z,12.52
2023-01-12T23:13:54.853Z,12.43
2023-01-12T23:16:22.489Z,11.80
2023-01-12T23:18:50.387Z,11.60
2023-01-12T23:21:27.827Z,11.00
2023-01-12T23:23:59.433Z,11.00
2023-01-12T23:26:31.104Z,11.88
2023-01-12T23:29:00.360Z,12.37
2023-01-12T23:31:30.353Z,11.50
2023-01-12T23:33:57.890Z,12.55
2023-01-12T23:36:26.468Z,10.85
2023-01-12T23:38:58.522Z,11.82
2023-01-12T23:41:27.545Z,11.85
2023-01-12T23:43:57.186Z,12.45
2023-01-12T23:46:24.637Z,12.77
2023-01-12T23:48:54.157Z,11.85
2023-01-12T23:51:23.116Z,10.82
2023-01-12T23:53:59.305Z,11.00
2023-01-12T23:56:28.923Z,12.27
2023-01-12T23:58:56.213Z,12.23
